Meishomaru — JD3044 — position and weather

sailwx.info

Track history (hours):
 
Tides and Currents Weather Stations Pressure Air Temp Water Temp Dewpoint Dewpoint Depression Visibility Wind Speed Wind Dir Waves Ship Positions

Meishomaru

Last reported at 2016-Jul-27 01:31 UTC. Time now 2016-Jul-27 01:51 UTC.
Position N 35°32' E 140°03'.

Length 68 m; draft 3.8 m.

Type: Tanker. MMSI: 431001216.

Date/timePositionNaut miles runAvg speedWind from/ knotsBaromVisibWave heightAir tempDewpointWater temp
2016-Jul-27 01:31N 35°32' E 140°03'0 0.0
2016-Jul-27 00:28N 35°32' E 140°03'2 2.0
2016-Jul-26 23:33N 35°32' E 140°01'5 5.1
2016-Jul-26 22:33N 35°33' E 139°55'0 0.0
2016-Jul-26 21:33N 35°33' E 139°55'0 0.0
2016-Jul-26 20:33N 35°33' E 139°55'0 0.0
2016-Jul-26 19:33N 35°33' E 139°55'0 0.0
2016-Jul-26 18:33N 35°33' E 139°55'0 0.0
2016-Jul-26 17:33N 35°33' E 139°55'0 0.0
2016-Jul-26 16:33N 35°33' E 139°55'0 0.0
2016-Jul-26 15:33N 35°33' E 139°55'0 0.0
2016-Jul-26 14:33N 35°33' E 139°55'0 0.0
2016-Jul-26 13:34N 35°33' E 139°55'0 0.0
2016-Jul-26 12:33N 35°33' E 139°55'0 0.0
2016-Jul-26 11:33N 35°33' E 139°55'0 0.0
2016-Jul-26 10:32N 35°33' E 139°55'0 0.0
2016-Jul-26 09:33N 35°33' E 139°55'0 0.0
2016-Jul-26 08:33N 35°33' E 139°55'0 0.0
2016-Jul-26 07:33N 35°33' E 139°55'0 0.0
2016-Jul-26 06:33N 35°33' E 139°55'0 0.0
2016-Jul-26 05:33N 35°33' E 139°55'0 0.0
2016-Jul-26 04:33N 35°33' E 139°55'0 0.0
2016-Jul-26 03:33N 35°33' E 139°55'0 0.0
2016-Jul-26 02:34N 35°33' E 139°55'0 0.0
2016-Jul-26 01:33N 35°33' E 139°55'0 0.0
2016-Jul-26 00:33N 35°33' E 139°55'0 0.0
2016-Jul-25 23:33N 35°33' E 139°55'0 0.0
2016-Jul-25 22:34N 35°33' E 139°55'0 0.0
2016-Jul-25 21:33N 35°33' E 139°55'0 0.0
2016-Jul-25 20:33N 35°33' E 139°55'0 0.0
2016-Jul-25 19:33N 35°33' E 139°55'0 0.0
2016-Jul-25 18:33N 35°33' E 139°55'0 0.0
2016-Jul-25 17:33N 35°33' E 139°55'0 0.0
2016-Jul-25 16:33N 35°33' E 139°55'0 0.0
2016-Jul-25 15:34N 35°33' E 139°55'0 0.1
2016-Jul-25 14:33N 35°33' E 139°55'0 0.1
2016-Jul-25 13:33N 35°33' E 139°55'0 0.0
2016-Jul-25 12:33N 35°33' E 139°55'0 0.0
2016-Jul-25 11:33N 35°33' E 139°55'0 0.0
2016-Jul-25 10:33N 35°33' E 139°55'0 0.0
2016-Jul-25 09:33N 35°33' E 139°55'0 0.0
2016-Jul-25 08:33N 35°33' E 139°55'0 0.0
2016-Jul-25 07:33N 35°33' E 139°55'0 0.0
2016-Jul-25 06:33N 35°33' E 139°55'0 0.0
2016-Jul-25 05:33N 35°33' E 139°55'0 0.0
2016-Jul-25 04:33N 35°33' E 139°55'0 0.0
2016-Jul-25 03:33N 35°33' E 139°55'7 6.5
2016-Jul-25 02:33N 35°31' E 140°02'0 0.0
2016-Jul-25 01:25N 35°31' E 140°02'0 0.0
2016-Jul-25 00:31N 35°31' E 140°02'0 0.0
2016-Jul-24 23:31N 35°31' E 140°02'6 6.6
2016-Jul-24 22:34N 35°33' E 139°55'0 0.1
2016-Jul-24 21:31N 35°33' E 139°55'0 0.0
2016-Jul-24 20:28N 35°33' E 139°55'0 0.0
2016-Jul-24 19:31N 35°33' E 139°55'0 0.0
2016-Jul-24 18:22N 35°33' E 139°55'0 0.0
2016-Jul-24 17:33N 35°33' E 139°55'1110.9
2016-Jul-24 16:33N 35°25' E 139°47'1110.7
2016-Jul-24 15:33N 35°14' E 139°47'1212.0
2016-Jul-24 14:32N 35°03' E 139°41'238 9.9
2016-Jul-23 14:24N 34°04' E 135°00'1011.6
2016-Jul-23 13:33N 34°14' E 134°59'11 9.0
2016-Jul-23 12:19N 34°24' E 135°04'911.4
2016-Jul-23 11:33N 34°29' E 135°13'1110.9
2016-Jul-23 10:33N 34°33' E 135°25'0 0.1
2016-Jul-23 06:09N 34°32' E 135°25'1710.4
2016-Jul-23 04:33N 34°35' E 135°05'1612.4
2016-Jul-23 03:18N 34°40' E 134°47'245 6.1
2016-Jul-21 11:13N 35°10' E 139°44'811.7
2016-Jul-21 10:34N 35°18' E 139°44'1110.8
2016-Jul-21 09:33N 35°28' E 139°49'1212.2
2016-Jul-21 08:34N 35°32' E 140°03'0 0.2
2016-Jul-21 07:32N 35°32' E 140°03'0 0.0
2016-Jul-21 06:32N 35°32' E 140°03'0 0.0
2016-Jul-21 05:32N 35°32' E 140°03'0 0.0
2016-Jul-21 04:32N 35°32' E 140°03'2 2.5
2016-Jul-21 03:33N 35°32' E 140°01'4 4.4
2016-Jul-21 02:33N 35°33' E 139°55'0 0.0
2016-Jul-21 01:33N 35°33' E 139°55'0 0.0
2016-Jul-21 00:27N 35°33' E 139°55'0 0.0
2016-Jul-20 23:33N 35°33' E 139°55'0 0.0
2016-Jul-20 22:24N 35°33' E 139°55'0 0.0
2016-Jul-20 21:30N 35°33' E 139°55'0 0.0
2016-Jul-20 20:24N 35°33' E 139°55'0 0.0
2016-Jul-20 19:33N 35°33' E 139°55'0 0.0
2016-Jul-20 18:24N 35°33' E 139°55'0 0.0
2016-Jul-20 17:30N 35°33' E 139°55'0 0.0
2016-Jul-20 16:30N 35°33' E 139°55'0 0.0
2016-Jul-20 15:33N 35°33' E 139°55'0 0.0
2016-Jul-20 14:21N 35°33' E 139°55'0 0.0
2016-Jul-20 13:21N 35°33' E 139°55'0 0.0
2016-Jul-20 12:30N 35°33' E 139°55'0 0.0
2016-Jul-20 11:18N 35°33' E 139°55'0 0.0
2016-Jul-20 10:33N 35°33' E 139°55'0 0.0
2016-Jul-20 09:24N 35°33' E 139°55'0 0.0
2016-Jul-20 08:24N 35°33' E 139°55'0 0.1
2016-Jul-20 07:33N 35°33' E 139°55'0 0.0
2016-Jul-20 06:30N 35°33' E 139°55'0 0.0
2016-Jul-20 05:30N 35°33' E 139°55'0 0.0
2016-Jul-20 02:33N 35°33' E 139°55'0 0.0
2016-Jul-20 01:33N 35°33' E 139°55'0 0.0
2016-Jul-20 00:33N 35°33' E 139°55'0 0.0
2016-Jul-19 23:30N 35°33' E 139°55'0 0.0
2016-Jul-19 22:33N 35°33' E 139°55'0 0.0
2016-Jul-19 21:33N 35°33' E 139°55'0 0.0
2016-Jul-19 20:33N 35°33' E 139°55'0 0.0
2016-Jul-19 19:33N 35°33' E 139°55'1111.5
2016-Jul-19 18:33N 35°24' E 139°46'1211.8
2016-Jul-19 17:33N 35°12' E 139°47'1211.8
2016-Jul-19 16:33N 35°02' E 139°41'1412.8
2016-Jul-19 15:29N 34°54' E 139°27'  
Track history (hours):
 
Tides and Currents Weather Stations Pressure Air Temp Water Temp Dewpoint Dewpoint Depression Visibility Wind Speed Wind Dir Waves Ship Positions

Meishomaru

Last reported at 2016-Jul-27 01:31 UTC. Time now 2016-Jul-27 01:51 UTC.
Position N 35°32' E 140°03'.

Length 68 m; draft 3.8 m.

Type: Tanker. MMSI: 431001216.

Date/timePositionNaut miles runAvg speedWind from/ knotsBaromVisibWave heightAir tempDewpointWater temp
2016-Jul-27 01:31N 35°32' E 140°03'0 0.0
2016-Jul-27 00:28N 35°32' E 140°03'2 2.0
2016-Jul-26 23:33N 35°32' E 140°01'5 5.1
2016-Jul-26 22:33N 35°33' E 139°55'0 0.0
2016-Jul-26 21:33N 35°33' E 139°55'0 0.0
2016-Jul-26 20:33N 35°33' E 139°55'0 0.0
2016-Jul-26 19:33N 35°33' E 139°55'0 0.0
2016-Jul-26 18:33N 35°33' E 139°55'0 0.0
2016-Jul-26 17:33N 35°33' E 139°55'0 0.0
2016-Jul-26 16:33N 35°33' E 139°55'0 0.0
2016-Jul-26 15:33N 35°33' E 139°55'0 0.0
2016-Jul-26 14:33N 35°33' E 139°55'0 0.0
2016-Jul-26 13:34N 35°33' E 139°55'0 0.0
2016-Jul-26 12:33N 35°33' E 139°55'0 0.0
2016-Jul-26 11:33N 35°33' E 139°55'0 0.0
2016-Jul-26 10:32N 35°33' E 139°55'0 0.0
2016-Jul-26 09:33N 35°33' E 139°55'0 0.0
2016-Jul-26 08:33N 35°33' E 139°55'0 0.0
2016-Jul-26 07:33N 35°33' E 139°55'0 0.0
2016-Jul-26 06:33N 35°33' E 139°55'0 0.0
2016-Jul-26 05:33N 35°33' E 139°55'0 0.0
2016-Jul-26 04:33N 35°33' E 139°55'0 0.0
2016-Jul-26 03:33N 35°33' E 139°55'0 0.0
2016-Jul-26 02:34N 35°33' E 139°55'0 0.0
2016-Jul-26 01:33N 35°33' E 139°55'0 0.0
2016-Jul-26 00:33N 35°33' E 139°55'0 0.0
2016-Jul-25 23:33N 35°33' E 139°55'0 0.0
2016-Jul-25 22:34N 35°33' E 139°55'0 0.0
2016-Jul-25 21:33N 35°33' E 139°55'0 0.0
2016-Jul-25 20:33N 35°33' E 139°55'0 0.0
2016-Jul-25 19:33N 35°33' E 139°55'0 0.0
2016-Jul-25 18:33N 35°33' E 139°55'0 0.0
2016-Jul-25 17:33N 35°33' E 139°55'0 0.0
2016-Jul-25 16:33N 35°33' E 139°55'0 0.0
2016-Jul-25 15:34N 35°33' E 139°55'0 0.1
2016-Jul-25 14:33N 35°33' E 139°55'0 0.1
2016-Jul-25 13:33N 35°33' E 139°55'0 0.0
2016-Jul-25 12:33N 35°33' E 139°55'0 0.0
2016-Jul-25 11:33N 35°33' E 139°55'0 0.0
2016-Jul-25 10:33N 35°33' E 139°55'0 0.0
2016-Jul-25 09:33N 35°33' E 139°55'0 0.0
2016-Jul-25 08:33N 35°33' E 139°55'0 0.0
2016-Jul-25 07:33N 35°33' E 139°55'0 0.0
2016-Jul-25 06:33N 35°33' E 139°55'0 0.0
2016-Jul-25 05:33N 35°33' E 139°55'0 0.0
2016-Jul-25 04:33N 35°33' E 139°55'0 0.0
2016-Jul-25 03:33N 35°33' E 139°55'7 6.5
2016-Jul-25 02:33N 35°31' E 140°02'0 0.0
2016-Jul-25 01:25N 35°31' E 140°02'0 0.0
2016-Jul-25 00:31N 35°31' E 140°02'0 0.0
2016-Jul-24 23:31N 35°31' E 140°02'6 6.6
2016-Jul-24 22:34N 35°33' E 139°55'0 0.1
2016-Jul-24 21:31N 35°33' E 139°55'0 0.0
2016-Jul-24 20:28N 35°33' E 139°55'0 0.0
2016-Jul-24 19:31N 35°33' E 139°55'0 0.0
2016-Jul-24 18:22N 35°33' E 139°55'0 0.0
2016-Jul-24 17:33N 35°33' E 139°55'1110.9
2016-Jul-24 16:33N 35°25' E 139°47'1110.7
2016-Jul-24 15:33N 35°14' E 139°47'1212.0
2016-Jul-24 14:32N 35°03' E 139°41'238 9.9
2016-Jul-23 14:24N 34°04' E 135°00'1011.6
2016-Jul-23 13:33N 34°14' E 134°59'11 9.0
2016-Jul-23 12:19N 34°24' E 135°04'911.4
2016-Jul-23 11:33N 34°29' E 135°13'1110.9
2016-Jul-23 10:33N 34°33' E 135°25'0 0.1
2016-Jul-23 06:09N 34°32' E 135°25'1710.4
2016-Jul-23 04:33N 34°35' E 135°05'1612.4
2016-Jul-23 03:18N 34°40' E 134°47'245 6.1
2016-Jul-21 11:13N 35°10' E 139°44'811.7
2016-Jul-21 10:34N 35°18' E 139°44'1110.8
2016-Jul-21 09:33N 35°28' E 139°49'1212.2
2016-Jul-21 08:34N 35°32' E 140°03'0 0.2
2016-Jul-21 07:32N 35°32' E 140°03'0 0.0
2016-Jul-21 06:32N 35°32' E 140°03'0 0.0
2016-Jul-21 05:32N 35°32' E 140°03'0 0.0
2016-Jul-21 04:32N 35°32' E 140°03'2 2.5
2016-Jul-21 03:33N 35°32' E 140°01'4 4.4
2016-Jul-21 02:33N 35°33' E 139°55'0 0.0
2016-Jul-21 01:33N 35°33' E 139°55'0 0.0
2016-Jul-21 00:27N 35°33' E 139°55'0 0.0
2016-Jul-20 23:33N 35°33' E 139°55'0 0.0
2016-Jul-20 22:24N 35°33' E 139°55'0 0.0
2016-Jul-20 21:30N 35°33' E 139°55'0 0.0
2016-Jul-20 20:24N 35°33' E 139°55'0 0.0
2016-Jul-20 19:33N 35°33' E 139°55'0 0.0
2016-Jul-20 18:24N 35°33' E 139°55'0 0.0
2016-Jul-20 17:30N 35°33' E 139°55'0 0.0
2016-Jul-20 16:30N 35°33' E 139°55'0 0.0
2016-Jul-20 15:33N 35°33' E 139°55'0 0.0
2016-Jul-20 14:21N 35°33' E 139°55'0 0.0
2016-Jul-20 13:21N 35°33' E 139°55'0 0.0
2016-Jul-20 12:30N 35°33' E 139°55'0 0.0
2016-Jul-20 11:18N 35°33' E 139°55'0 0.0
2016-Jul-20 10:33N 35°33' E 139°55'0 0.0
2016-Jul-20 09:24N 35°33' E 139°55'0 0.0
2016-Jul-20 08:24N 35°33' E 139°55'0 0.1
2016-Jul-20 07:33N 35°33' E 139°55'0 0.0
2016-Jul-20 06:30N 35°33' E 139°55'0 0.0
2016-Jul-20 05:30N 35°33' E 139°55'0 0.0
2016-Jul-20 02:33N 35°33' E 139°55'0 0.0
2016-Jul-20 01:33N 35°33' E 139°55'0 0.0
2016-Jul-20 00:33N 35°33' E 139°55'0 0.0
2016-Jul-19 23:30N 35°33' E 139°55'0 0.0
2016-Jul-19 22:33N 35°33' E 139°55'0 0.0
2016-Jul-19 21:33N 35°33' E 139°55'0 0.0
2016-Jul-19 20:33N 35°33' E 139°55'0 0.0
2016-Jul-19 19:33N 35°33' E 139°55'1111.5
2016-Jul-19 18:33N 35°24' E 139°46'1211.8
2016-Jul-19 17:33N 35°12' E 139°47'1211.8
2016-Jul-19 16:33N 35°02' E 139°41'1412.8
2016-Jul-19 15:29N 34°54' E 139°27'  

Dump ship's entire track history